createdAt,value
2023-05-12T00:01:24.899Z,77.87
2023-05-12T00:03:57.795Z,78.27
2023-05-12T00:06:31.480Z,78.34
2023-05-12T00:09:06.264Z,78.13
2023-05-12T00:11:39.009Z,78.19
2023-05-12T00:14:11.728Z,78.39
2023-05-12T00:16:44.883Z,78.42
2023-05-12T00:19:18.103Z,78.60
2023-05-12T00:21:51.113Z,78.70
2023-05-12T00:24:25.225Z,78.66
2023-05-12T00:26:57.898Z,78.58
2023-05-12T00:29:30.608Z,78.71
2023-05-12T00:32:03.511Z,78.81
2023-05-12T00:34:36.499Z,78.85
2023-05-12T00:37:09.259Z,78.81
2023-05-12T00:39:43.646Z,79.00
2023-05-12T00:42:16.301Z,78.85
2023-05-12T00:44:49.018Z,78.71
2023-05-12T00:47:22.435Z,78.57
2023-05-12T00:49:55.289Z,78.84
2023-05-12T00:52:28.920Z,78.82
2023-05-12T00:55:05.230Z,78.90
2023-05-12T00:57:38.006Z,78.72
2023-05-12T01:00:11.085Z,78.53
2023-05-12T01:02:43.940Z,78.81
2023-05-12T01:05:16.894Z,78.45
2023-05-12T01:07:50.083Z,78.68
2023-05-12T01:10:24.103Z,78.56
2023-05-12T01:12:56.812Z,78.56
2023-05-12T01:15:31.069Z,78.57
2023-05-12T01:18:06.321Z,78.55
2023-05-12T01:20:39.458Z,78.58
2023-05-12T01:23:13.613Z,78.49
2023-05-12T01:25:50.247Z,78.34
2023-05-12T01:28:24.440Z,78.69
2023-05-12T01:30:57.495Z,78.64
2023-05-12T01:33:30.273Z,78.47
2023-05-12T01:36:03.392Z,78.57
2023-05-12T01:38:36.040Z,78.52
2023-05-12T01:41:08.821Z,78.55
2023-05-12T01:43:42.963Z,78.60
2023-05-12T01:46:15.861Z,78.62
2023-05-12T01:48:48.585Z,78.45
2023-05-12T01:51:21.234Z,78.44
2023-05-12T01:53:54.038Z,78.51
2023-05-12T01:56:26.771Z,78.47
2023-05-12T01:59:00.946Z,78.03
2023-05-12T02:01:33.750Z,78.03
2023-05-12T02:04:08.857Z,78.04
2023-05-12T02:06:41.879Z,77.98
2023-05-12T02:09:14.642Z,77.99
2023-05-12T02:11:47.365Z,78.01
2023-05-12T02:14:21.427Z,77.82
2023-05-12T02:16:55.478Z,77.79
2023-05-12T02:19:28.475Z,77.70
2023-05-12T02:22:01.254Z,77.68
2023-05-12T02:24:33.961Z,77.43
2023-05-12T02:27:06.920Z,77.33
2023-05-12T02:29:42.084Z,77.20
2023-05-12T02:32:14.848Z,77.46
2023-05-12T02:34:47.610Z,77.34
2023-05-12T02:37:20.430Z,77.69
2023-05-12T02:39:53.098Z,77.76
2023-05-12T02:42:28.955Z,78.25
2023-05-12T02:45:03.398Z,78.13
2023-05-12T02:47:36.476Z,78.43
2023-05-12T02:50:10.281Z,78.59
2023-05-12T02:52:43.002Z,78.67
2023-05-12T02:55:15.737Z,78.74
2023-05-12T02:57:48.458Z,78.83
2023-05-12T03:00:22.690Z,78.88
2023-05-12T03:02:55.615Z,78.96
2023-05-12T03:05:28.421Z,79.09
2023-05-12T03:08:01.349Z,78.98
2023-05-12T03:10:34.236Z,78.72
2023-05-12T03:13:07.037Z,78.58
2023-05-12T03:15:41.076Z,78.59
2023-05-12T03:18:13.782Z,78.60
2023-05-12T03:20:47.078Z,78.40
2023-05-12T03:23:19.915Z,78.43
2023-05-12T03:25:52.858Z,78.87
2023-05-12T03:28:25.673Z,78.74
2023-05-12T03:30:59.777Z,78.84
2023-05-12T03:33:32.695Z,78.81
2023-05-12T03:36:05.846Z,78.72
2023-05-12T03:38:38.679Z,78.70
2023-05-12T03:41:11.330Z,78.95
2023-05-12T03:43:44.102Z,78.71
2023-05-12T03:46:18.358Z,78.76
2023-05-12T03:48:51.069Z,79.09
2023-05-12T03:51:23.700Z,78.92
2023-05-12T03:53:56.451Z,79.04
2023-05-12T03:56:29.672Z,79.08
2023-05-12T03:59:02.433Z,79.07
2023-05-12T04:01:36.917Z,78.60
2023-05-12T04:04:09.817Z,78.54
2023-05-12T04:06:42.660Z,78.92
2023-05-12T04:09:16.310Z,78.53
2023-05-12T04:11:48.990Z,78.58
2023-05-12T04:14:29.016Z,77.90
2023-05-12T04:17:09.704Z,77.78
2023-05-12T04:19:42.463Z,78.13
2023-05-12T04:22:15.118Z,77.99
2023-05-12T04:24:47.882Z,77.45
2023-05-12T04:27:20.559Z,77.86
2023-05-12T04:29:53.301Z,77.99
2023-05-12T04:32:27.341Z,78.62
2023-05-12T04:35:00.166Z,78.20
2023-05-12T04:37:32.828Z,77.73
2023-05-12T04:40:07.287Z,78.25
2023-05-12T04:42:40.012Z,78.46
2023-05-12T04:45:13.123Z,78.16
2023-05-12T04:47:47.204Z,78.51
2023-05-12T04:50:20.157Z,78.78
2023-05-12T04:52:52.819Z,78.40
2023-05-12T04:55:25.835Z,79.22
2023-05-12T04:57:58.585Z,79.51
2023-05-12T05:00:31.298Z,78.65
2023-05-12T05:03:05.774Z,78.82
2023-05-12T05:05:38.650Z,79.12
2023-05-12T05:08:11.368Z,79.76
2023-05-12T05:10:44.043Z,79.70
2023-05-12T05:13:16.946Z,79.77
2023-05-12T05:15:53.150Z,80.24
2023-05-12T05:18:27.453Z,80.00
2023-05-12T05:21:00.374Z,79.54
2023-05-12T05:23:33.230Z,78.10
2023-05-12T05:26:06.195Z,79.08
2023-05-12T05:28:40.067Z,80.52
2023-05-12T05:31:16.161Z,80.72
2023-05-12T05:33:50.283Z,80.57
2023-05-12T05:36:23.503Z,80.67
2023-05-12T05:38:56.157Z,80.00
2023-05-12T05:41:28.817Z,78.82
2023-05-12T05:44:01.648Z,76.84
2023-05-12T05:46:34.734Z,76.62
2023-05-12T05:49:08.890Z,76.32
2023-05-12T05:51:41.608Z,76.89
2023-05-12T05:54:14.262Z,77.80
2023-05-12T05:56:46.989Z,78.83
2023-05-12T05:59:19.702Z,80.45
2023-05-12T06:01:52.429Z,81.78
2023-05-12T06:04:27.042Z,81.68
2023-05-12T06:06:59.737Z,82.81
2023-05-12T06:09:32.422Z,83.25
2023-05-12T06:12:05.328Z,84.93
2023-05-12T06:14:38.039Z,86.43
2023-05-12T06:17:11.057Z,85.96
2023-05-12T06:19:47.997Z,85.30
2023-05-12T06:22:20.747Z,85.18
2023-05-12T06:24:53.582Z,82.96
2023-05-12T06:27:26.284Z,82.71
2023-05-12T06:29:58.920Z,81.51
2023-05-12T06:32:31.767Z,82.42
2023-05-12T06:35:06.781Z,80.10
2023-05-12T06:37:39.598Z,79.17
2023-05-12T06:40:12.402Z,78.66
2023-05-12T06:42:45.062Z,78.14
2023-05-12T06:45:19.044Z,76.03
2023-05-12T06:47:52.015Z,75.15
2023-05-12T06:50:26.289Z,74.76
2023-05-12T06:52:59.065Z,75.88
2023-05-12T06:55:31.770Z,73.59
2023-05-12T06:58:04.629Z,74.58
2023-05-12T07:00:37.321Z,74.36
2023-05-12T07:03:12.270Z,75.19
2023-05-12T07:05:46.399Z,74.13
2023-05-12T07:08:19.150Z,75.37
2023-05-12T07:10:51.887Z,76.13
2023-05-12T07:13:25.260Z,77.20
2023-05-12T07:15:57.938Z,76.10
2023-05-12T07:18:32.088Z,76.22
2023-05-12T07:21:06.390Z,76.96
2023-05-12T07:23:39.168Z,75.53
2023-05-12T07:26:11.879Z,76.84
2023-05-12T07:28:45.218Z,74.29
2023-05-12T07:31:18.001Z,78.48
2023-05-12T07:33:50.761Z,75.70
2023-05-12T07:36:25.020Z,74.04
2023-05-12T07:38:57.903Z,68.89
2023-05-12T07:41:32.511Z,73.09
2023-05-12T07:44:06.021Z,75.29
2023-05-12T07:46:38.726Z,73.46
2023-05-12T07:49:11.567Z,69.61
2023-05-12T07:51:45.833Z,72.07
2023-05-12T07:54:18.577Z,67.54
2023-05-12T07:56:51.604Z,70.69
2023-05-12T07:59:24.323Z,72.80
2023-05-12T08:01:57.018Z,67.68
2023-05-12T08:04:29.793Z,72.93
2023-05-12T08:07:03.922Z,73.62
2023-05-12T08:09:36.638Z,74.62
2023-05-12T08:12:09.565Z,73.41
2023-05-12T08:14:42.242Z,76.51
2023-05-12T08:17:14.985Z,75.70
2023-05-12T08:19:47.834Z,73.48
2023-05-12T08:22:21.924Z,75.75
2023-05-12T08:24:54.617Z,77.11
2023-05-12T08:27:27.296Z,74.96
2023-05-12T08:29:59.986Z,73.29
2023-05-12T08:32:33.157Z,71.19
2023-05-12T08:35:06.438Z,76.13
2023-05-12T08:37:40.546Z,76.64
2023-05-12T08:40:17.940Z,74.34
2023-05-12T08:42:55.857Z,75.73
2023-05-12T08:45:29.336Z,74.64
2023-05-12T08:48:02.332Z,76.41
2023-05-12T08:50:36.692Z,74.91
2023-05-12T08:53:11.865Z,69.87
2023-05-12T08:55:54.402Z,74.26
2023-05-12T08:58:41.654Z,74.60
2023-05-12T09:01:16.162Z,73.60
2023-05-12T09:03:49.106Z,73.58
2023-05-12T09:06:21.802Z,75.67
2023-05-12T09:08:56.134Z,73.31
2023-05-12T09:11:29.095Z,72.61
2023-05-12T09:14:02.931Z,74.66
2023-05-12T09:16:39.110Z,74.79
2023-05-12T09:19:11.991Z,72.58
2023-05-12T09:21:45.183Z,74.31
2023-05-12T09:24:19.294Z,73.56
2023-05-12T09:26:52.772Z,74.45
2023-05-12T09:29:31.752Z,72.53
2023-05-12T09:32:06.369Z,72.09
2023-05-12T09:34:41.349Z,74.72
2023-05-12T09:37:15.849Z,72.22
2023-05-12T09:39:59.739Z,75.47
2023-05-12T09:42:33.296Z,73.57
2023-05-12T09:45:06.450Z,75.29
2023-05-12T09:47:40.049Z,76.38
2023-05-12T09:50:12.824Z,76.08
2023-05-12T09:52:45.530Z,74.98
2023-05-12T09:55:20.108Z,63.77
2023-05-12T09:57:53.787Z,75.54
2023-05-12T10:00:51.948Z,77.88
2023-05-12T10:03:22.195Z,75.44
2023-05-12T10:05:58.844Z,77.90
2023-05-12T10:08:33.738Z,65.76
2023-05-12T10:11:08.316Z,70.30
2023-05-12T10:13:41.639Z,73.83
2023-05-12T10:16:15.223Z,78.28
2023-05-12T10:18:48.845Z,75.11
2023-05-12T10:21:22.826Z,67.50
2023-05-12T10:23:55.932Z,70.14
2023-05-12T10:26:30.323Z,70.20
2023-05-12T10:29:03.282Z,68.17
2023-05-12T10:31:36.597Z,75.62
2023-05-12T10:34:17.086Z,72.72
2023-05-12T10:36:50.484Z,75.55
2023-05-12T10:39:28.763Z,77.84
2023-05-12T10:42:04.926Z,76.24
2023-05-12T10:44:38.102Z,76.33
2023-05-12T10:47:14.274Z,75.08
2023-05-12T10:49:46.968Z,75.89
2023-05-12T10:52:21.306Z,66.74
2023-05-12T10:55:01.360Z,75.10
2023-05-12T10:57:36.529Z,73.17
2023-05-12T11:00:13.958Z,74.64
2023-05-12T11:02:52.345Z,74.02
2023-05-12T11:05:35.235Z,73.06
2023-05-12T11:08:09.480Z,68.47
2023-05-12T11:10:42.664Z,74.40
2023-05-12T11:13:17.230Z,75.33
2023-05-12T11:15:51.140Z,75.94
2023-05-12T11:18:24.374Z,74.06
2023-05-12T11:20:57.160Z,74.53
2023-05-12T11:23:31.433Z,74.71
2023-05-12T11:26:04.990Z,74.94
2023-05-12T11:28:42.477Z,70.77
2023-05-12T11:31:19.026Z,75.41
2023-05-12T11:34:04.612Z,76.88
2023-05-12T11:36:46.635Z,75.53
2023-05-12T11:39:20.854Z,71.03
2023-05-12T11:42:02.130Z,72.20
2023-05-12T11:44:47.650Z,75.09
2023-05-12T11:47:20.838Z,75.58
2023-05-12T11:49:54.776Z,76.87
2023-05-12T11:52:28.319Z,77.12
2023-05-12T11:55:01.396Z,76.64
2023-05-12T11:57:35.094Z,72.09
2023-05-12T12:00:10.313Z,77.31
2023-05-12T12:02:43.920Z,74.15
2023-05-12T12:05:21.246Z,74.82
2023-05-12T12:08:05.364Z,74.51
2023-05-12T12:10:38.185Z,78.73
2023-05-12T12:13:11.140Z,77.48
2023-05-12T12:15:45.441Z,75.33
2023-05-12T12:18:19.068Z,74.86
2023-05-12T12:20:53.131Z,78.24
2023-05-12T12:23:25.997Z,75.74
2023-05-12T12:25:58.650Z,66.46
2023-05-12T12:28:31.563Z,73.40
2023-05-12T12:31:05.880Z,70.50
2023-05-12T12:33:38.762Z,72.72
2023-05-12T12:36:11.447Z,71.22
2023-05-12T12:38:44.126Z,69.97
2023-05-12T12:41:17.401Z,68.80
2023-05-12T12:43:50.430Z,71.62
2023-05-12T12:46:24.547Z,70.84
2023-05-12T12:48:58.261Z,70.91
2023-05-12T12:51:44.658Z,66.88
2023-05-12T12:54:18.693Z,71.43
2023-05-12T12:56:51.417Z,72.24
2023-05-12T12:59:24.476Z,71.55
2023-05-12T13:02:00.172Z,69.57
2023-05-12T13:04:32.966Z,70.46
2023-05-12T13:07:06.037Z,73.86
2023-05-12T13:09:38.729Z,73.84
2023-05-12T13:12:11.441Z,70.29
2023-05-12T13:14:44.238Z,72.57
2023-05-12T13:17:19.047Z,69.42
2023-05-12T13:19:52.767Z,72.40
2023-05-12T13:22:27.514Z,64.73
2023-05-12T13:25:00.298Z,72.31
2023-05-12T13:27:33.471Z,71.77
2023-05-12T13:30:07.517Z,71.88
2023-05-12T13:32:42.203Z,74.38
2023-05-12T13:35:14.966Z,70.96
2023-05-12T13:37:47.748Z,73.63
2023-05-12T13:40:20.563Z,68.01
2023-05-12T13:42:53.168Z,69.37
2023-05-12T13:45:26.485Z,73.13
2023-05-12T13:48:00.703Z,69.94
2023-05-12T13:50:33.798Z,73.28
2023-05-12T13:53:06.661Z,73.09
2023-05-12T13:55:40.863Z,70.97
2023-05-12T13:58:13.865Z,71.67
2023-05-12T14:00:48.080Z,75.46
2023-05-12T14:03:22.133Z,73.50
2023-05-12T14:05:54.844Z,73.72
2023-05-12T14:08:27.498Z,75.49
2023-05-12T14:11:00.594Z,78.95
2023-05-12T14:13:33.269Z,75.07
2023-05-12T14:16:06.405Z,75.26
2023-05-12T14:18:43.245Z,75.85
2023-05-12T14:21:16.319Z,75.39
2023-05-12T14:23:51.137Z,77.70
2023-05-12T14:26:25.686Z,75.50
2023-05-12T14:28:58.376Z,75.14
2023-05-12T14:31:31.198Z,66.31
2023-05-12T14:34:05.840Z,72.59
2023-05-12T14:36:38.594Z,71.72
2023-05-12T14:39:11.576Z,65.71
2023-05-12T14:41:44.555Z,72.33
2023-05-12T14:44:17.273Z,68.59
2023-05-12T14:46:50.208Z,57.39
2023-05-12T14:49:24.583Z,69.93
2023-05-12T14:51:57.574Z,75.33
2023-05-12T14:54:30.315Z,77.20
2023-05-12T14:57:03.684Z,75.50
2023-05-12T14:59:36.385Z,76.11
2023-05-12T15:02:09.153Z,75.64
2023-05-12T15:04:43.795Z,75.60
2023-05-12T15:07:16.690Z,73.42
2023-05-12T15:09:49.458Z,75.75
2023-05-12T15:12:22.323Z,75.21
2023-05-12T15:14:56.002Z,74.92
2023-05-12T15:17:30.715Z,67.34
2023-05-12T15:20:05.558Z,60.66
2023-05-12T15:22:38.383Z,72.13
2023-05-12T15:25:11.645Z,71.20
2023-05-12T15:27:44.696Z,68.84
2023-05-12T15:30:17.485Z,67.77
2023-05-12T15:32:50.199Z,62.50
2023-05-12T15:35:24.242Z,70.29
2023-05-12T15:37:56.931Z,74.49
2023-05-12T15:40:31.012Z,63.13
2023-05-12T15:43:05.039Z,71.29
2023-05-12T15:45:38.338Z,72.52
2023-05-12T15:48:11.674Z,74.82
2023-05-12T15:50:45.801Z,74.87
2023-05-12T15:53:18.660Z,75.25
2023-05-12T15:55:59.733Z,65.84
2023-05-12T15:58:32.774Z,74.08
2023-05-12T16:01:05.541Z,72.57
2023-05-12T16:03:38.735Z,67.73
2023-05-12T16:06:13.300Z,64.95
2023-05-12T16:08:46.064Z,72.09
2023-05-12T16:11:18.747Z,70.44
2023-05-12T16:13:53.030Z,69.09
2023-05-12T16:16:25.731Z,69.36
2023-05-12T16:18:58.632Z,68.73
2023-05-12T16:21:33.244Z,71.26
2023-05-12T16:24:08.295Z,69.17
2023-05-12T16:26:42.012Z,69.97
2023-05-12T16:29:14.891Z,70.55
2023-05-12T16:31:47.600Z,66.57
2023-05-12T16:34:20.478Z,61.59
2023-05-12T16:36:54.557Z,72.18
2023-05-12T16:39:27.321Z,71.32
2023-05-12T16:42:00.481Z,71.55
2023-05-12T16:44:33.254Z,72.65
2023-05-12T16:47:06.179Z,74.00
2023-05-12T16:49:39.159Z,67.38
2023-05-12T16:52:14.834Z,67.36
2023-05-12T16:54:47.650Z,72.70
2023-05-12T16:57:21.014Z,71.55
2023-05-12T16:59:54.067Z,74.65
2023-05-12T17:02:26.786Z,67.43
2023-05-12T17:04:59.581Z,70.65
2023-05-12T17:07:35.290Z,64.25
2023-05-12T17:10:08.327Z,64.02
2023-05-12T17:12:40.985Z,70.01
2023-05-12T17:15:13.729Z,63.38
2023-05-12T17:17:46.795Z,69.05
2023-05-12T17:20:19.645Z,69.91
2023-05-12T17:22:53.861Z,67.54
2023-05-12T17:25:29.640Z,68.70
2023-05-12T17:28:02.394Z,72.73
2023-05-12T17:30:35.185Z,72.13
2023-05-12T17:33:08.814Z,70.26
2023-05-12T17:35:41.775Z,69.74
2023-05-12T17:38:16.372Z,70.92
2023-05-12T17:40:49.023Z,71.78
2023-05-12T17:43:22.554Z,70.54
2023-05-12T17:45:55.289Z,71.50
2023-05-12T17:48:31.050Z,70.42
2023-05-12T17:51:04.251Z,70.18
2023-05-12T17:53:38.445Z,69.19
2023-05-12T17:56:11.625Z,71.06
2023-05-12T17:58:44.375Z,69.26
2023-05-12T18:01:17.104Z,69.86
2023-05-12T18:03:49.879Z,69.87
2023-05-12T18:06:22.597Z,71.43
2023-05-12T18:08:57.013Z,70.63
2023-05-12T18:11:29.815Z,70.93
2023-05-12T18:14:05.873Z,70.32
2023-05-12T18:16:39.122Z,70.64
2023-05-12T18:19:11.787Z,70.21
2023-05-12T18:21:44.630Z,70.36
2023-05-12T18:24:18.652Z,70.33
2023-05-12T18:26:51.370Z,70.82
2023-05-12T18:29:24.010Z,71.00
2023-05-12T18:31:56.962Z,71.40
2023-05-12T18:34:30.154Z,70.52
2023-05-12T18:37:03.165Z,70.13
2023-05-12T18:39:37.236Z,71.04
2023-05-12T18:42:10.402Z,71.23
2023-05-12T18:44:43.117Z,70.55
2023-05-12T18:47:15.806Z,71.55
2023-05-12T18:49:48.445Z,71.93
2023-05-12T18:52:21.907Z,72.29
2023-05-12T18:54:56.099Z,72.75
2023-05-12T18:57:28.847Z,73.05
2023-05-12T19:00:01.543Z,71.88
2023-05-12T19:02:34.703Z,72.32
2023-05-12T19:05:07.955Z,72.36
2023-05-12T19:07:40.636Z,71.93
2023-05-12T19:10:14.784Z,72.45
2023-05-12T19:12:48.124Z,71.86
2023-05-12T19:15:21.148Z,71.88
2023-05-12T19:17:54.371Z,72.28
2023-05-12T19:20:28.128Z,72.25
2023-05-12T19:23:01.401Z,72.43
2023-05-12T19:25:35.779Z,72.32
2023-05-12T19:28:11.999Z,72.90
2023-05-12T19:30:44.749Z,72.52
2023-05-12T19:33:17.695Z,72.27
2023-05-12T19:35:50.409Z,72.38
2023-05-12T19:38:23.869Z,72.67
2023-05-12T19:40:57.919Z,72.89
2023-05-12T19:43:30.613Z,73.35
2023-05-12T19:46:03.414Z,73.62
2023-05-12T19:48:36.136Z,73.61
2023-05-12T19:51:09.071Z,73.45
2023-05-12T19:53:43.275Z,73.46
2023-05-12T19:56:18.789Z,73.37
2023-05-12T19:58:52.337Z,72.97
2023-05-12T20:01:25.117Z,72.89
2023-05-12T20:03:57.886Z,71.96
2023-05-12T20:06:31.769Z,72.55
2023-05-12T20:09:04.623Z,72.46
2023-05-12T20:11:38.632Z,72.52
2023-05-12T20:14:11.301Z,72.57
2023-05-12T20:16:44.018Z,72.74
2023-05-12T20:19:17.010Z,72.42
2023-05-12T20:21:49.721Z,72.93
2023-05-12T20:24:22.827Z,73.45
2023-05-12T20:26:56.911Z,73.27
2023-05-12T20:29:30.361Z,73.82
2023-05-12T20:32:03.083Z,73.72
2023-05-12T20:34:36.142Z,73.88
2023-05-12T20:37:08.837Z,73.79
2023-05-12T20:39:41.652Z,74.00
2023-05-12T20:42:15.757Z,73.79
2023-05-12T20:44:48.580Z,74.05
2023-05-12T20:47:21.311Z,74.07
2023-05-12T20:49:56.083Z,74.19
2023-05-12T20:52:29.444Z,74.03
2023-05-12T20:55:02.208Z,74.04
2023-05-12T20:57:37.768Z,73.79
2023-05-12T21:00:11.731Z,73.69
2023-05-12T21:02:44.449Z,73.86
2023-05-12T21:05:17.203Z,73.79
2023-05-12T21:07:49.910Z,73.78
2023-05-12T21:10:23.057Z,74.04
2023-05-12T21:12:57.337Z,74.07
2023-05-12T21:15:30.064Z,73.86
2023-05-12T21:18:02.881Z,73.65
2023-05-12T21:20:35.644Z,73.49
2023-05-12T21:23:11.425Z,73.44
2023-05-12T21:25:44.130Z,73.37
2023-05-12T21:28:18.214Z,73.46
2023-05-12T21:30:51.083Z,73.23
2023-05-12T21:33:23.950Z,73.19
2023-05-12T21:35:56.660Z,73.03
2023-05-12T21:38:29.344Z,72.98
2023-05-12T21:41:02.081Z,72.98
2023-05-12T21:43:36.382Z,73.06
2023-05-12T21:46:09.265Z,73.28
2023-05-12T21:48:42.067Z,73.33
2023-05-12T21:51:14.939Z,73.27
2023-05-12T21:53:47.649Z,73.00
2023-05-12T21:56:20.476Z,73.13
2023-05-12T21:58:54.504Z,73.20
2023-05-12T22:01:27.283Z,73.07
2023-05-12T22:04:00.167Z,73.29
2023-05-12T22:06:32.951Z,73.38
2023-05-12T22:09:05.919Z,73.58
2023-05-12T22:11:38.778Z,73.41
2023-05-12T22:14:12.881Z,73.32
2023-05-12T22:16:45.740Z,73.08
2023-05-12T22:19:18.406Z,72.99
2023-05-12T22:21:51.206Z,73.17
2023-05-12T22:24:23.891Z,73.66
2023-05-12T22:26:56.620Z,73.10
2023-05-12T22:29:31.070Z,73.22
2023-05-12T22:32:03.904Z,74.32
2023-05-12T22:34:36.594Z,74.61
2023-05-12T22:37:09.665Z,75.17
2023-05-12T22:39:42.353Z,75.67
2023-05-12T22:42:15.089Z,75.50
2023-05-12T22:44:49.288Z,76.34
2023-05-12T22:47:22.140Z,76.49
2023-05-12T22:49:54.886Z,76.90
2023-05-12T22:52:27.736Z,77.06
2023-05-12T22:55:00.449Z,77.17
2023-05-12T22:57:33.506Z,77.54
2023-05-12T23:00:09.775Z,77.68
2023-05-12T23:02:42.501Z,77.62
2023-05-12T23:05:15.937Z,77.85
2023-05-12T23:07:48.675Z,78.13
2023-05-12T23:10:21.684Z,78.03
2023-05-12T23:12:54.614Z,78.02
2023-05-12T23:15:28.894Z,78.03
2023-05-12T23:18:01.878Z,78.14
2023-05-12T23:20:35.068Z,78.13
2023-05-12T23:23:08.819Z,78.04
2023-05-12T23:25:42.899Z,78.49
2023-05-12T23:28:15.615Z,78.58
2023-05-12T23:30:49.642Z,78.34
2023-05-12T23:33:22.813Z,78.42
2023-05-12T23:35:55.903Z,78.16
2023-05-12T23:38:28.606Z,78.31
2023-05-12T23:41:01.227Z,78.25
2023-05-12T23:43:33.942Z,78.14
2023-05-12T23:46:08.108Z,78.12
2023-05-12T23:48:41.039Z,78.40
2023-05-12T23:51:14.008Z,78.18
2023-05-12T23:53:47.303Z,78.16
2023-05-12T23:56:19.941Z,78.25
2023-05-12T23:58:52.764Z,78.19
